KFAT/FAT METAR and TAF weather

Enter ICAO airport designator
Station Type Date Time Source
KFAT METAR 2022/09/26 08:53 UTC NOAA

KFAT 260853Z 32003KT 10SM FEW150 FEW200 24/14 A2991 RMK AO2 SLP124 T02440139 58004


Station Type Date Time Source
KFAT Decoded METAR 2022/09/26 08:53 UTC NOAA

FRESNO AIR TERMINAL, CA, United States (KFAT) 36-47N 119-43W 104M
Sep 26, 2022 - 04:53 AM EDT / 2022.09.26 0853 UTC
Wind: from the NW (320 degrees) at 3 MPH (3 KT):0
Visibility: 10 mile(s):0
Sky conditions: mostly clear
Temperature: 75.9 F (24.4 C)
Dew Point: 57.0 F (13.9 C)
Relative Humidity: 51%
Pressure (altimeter): 29.91 in. Hg (1012 hPa)
Pressure tendency: 0.01 inches (0.4 hPa) lower than three hours ago
ob: KFAT 260853Z 32003KT 10SM FEW150 FEW200 24/14 A2991 RMK AO2 SLP124 T02440139 58004
cycle: 9

Station Type Date Time Source
KFAT TAF 2022/09/26 06:22 UTC NOAA

TAF KFAT 260520Z 2606/2706 30007KT P6SM FEW200

Example: see airport list